createdAt,value
2017-08-13T00:02:24.004Z,100917.98
2017-08-13T00:04:51.475Z,100923.75
2017-08-13T00:07:18.660Z,100913.12
2017-08-13T00:09:46.072Z,100917.50
2017-08-13T00:12:13.246Z,100915.31
2017-08-13T00:14:40.415Z,100907.33
2017-08-13T00:17:08.049Z,100913.12
2017-08-13T00:19:35.289Z,100910.45
2017-08-13T00:22:02.748Z,100916.67
2017-08-13T00:24:30.206Z,100923.81
2017-08-13T00:26:57.378Z,100926.02
2017-08-13T00:29:24.552Z,100917.13
2017-08-13T00:31:52.276Z,100914.91
2017-08-13T00:34:19.797Z,100912.67
2017-08-13T00:36:46.969Z,100914.00
2017-08-13T00:39:14.137Z,100904.23
2017-08-13T00:41:41.480Z,100891.79
2017-08-13T00:44:08.990Z,100892.22
2017-08-13T00:46:36.508Z,100904.71
2017-08-13T00:49:03.695Z,100906.47
2017-08-13T00:51:30.884Z,100912.67
2017-08-13T00:53:58.162Z,100917.13
2017-08-13T00:56:25.613Z,100914.97
2017-08-13T00:58:53.385Z,100913.16
2017-08-13T01:01:20.572Z,100911.80
2017-08-13T01:03:47.760Z,100918.06
2017-08-13T01:06:14.943Z,100912.24
2017-08-13T01:08:42.280Z,100910.91
2017-08-13T01:11:09.449Z,100908.72
2017-08-13T01:13:36.617Z,100910.00
2017-08-13T01:16:04.040Z,100909.13
2017-08-13T01:18:31.209Z,100916.65
2017-08-13T01:20:58.393Z,100912.22
2017-08-13T01:23:25.796Z,100910.91
2017-08-13T01:25:53.285Z,100911.80
2017-08-13T01:28:20.719Z,100915.39
2017-08-13T01:30:48.228Z,100918.92
2017-08-13T01:33:15.396Z,100921.14
2017-08-13T01:35:43.093Z,100921.59
2017-08-13T01:38:10.279Z,100927.36
2017-08-13T01:40:37.687Z,100926.00
2017-08-13T01:43:05.149Z,100915.39
2017-08-13T01:45:32.332Z,100906.05
2017-08-13T01:47:59.745Z,100917.13
2017-08-13T01:50:27.269Z,100926.02
2017-08-13T01:52:54.672Z,100919.83
2017-08-13T01:55:22.006Z,100916.30
2017-08-13T01:57:49.592Z,100921.14
2017-08-13T02:00:17.044Z,100919.83
2017-08-13T02:02:44.495Z,100928.27
2017-08-13T02:05:12.022Z,100930.99
2017-08-13T02:07:39.203Z,100926.50
2017-08-13T02:10:06.396Z,100932.27
2017-08-13T02:12:33.584Z,100935.83
2017-08-13T02:15:00.753Z,100927.84
2017-08-13T02:17:28.011Z,100928.75
2017-08-13T02:19:55.195Z,100927.84
2017-08-13T02:22:22.365Z,100934.01
2017-08-13T02:24:49.549Z,100926.37
2017-08-13T02:27:16.984Z,100935.08
2017-08-13T02:29:44.502Z,100928.22
2017-08-13T02:32:11.673Z,100925.15
2017-08-13T02:34:38.842Z,100927.12
2017-08-13T02:37:06.449Z,100934.57
2017-08-13T02:39:33.652Z,100925.59
2017-08-13T02:42:00.837Z,100923.98
2017-08-13T02:44:28.382Z,100928.50
2017-08-13T02:46:55.971Z,100931.88
2017-08-13T02:49:23.180Z,100937.38
2017-08-13T02:51:50.572Z,100929.49
2017-08-13T02:54:17.756Z,100930.20
2017-08-13T02:56:45.371Z,100931.18
2017-08-13T02:59:12.949Z,100934.61
2017-08-13T03:01:40.117Z,100937.92
2017-08-13T03:04:07.623Z,100938.52
2017-08-13T03:06:35.004Z,100936.78
2017-08-13T03:09:02.258Z,100934.16
2017-08-13T03:11:29.443Z,100942.23
2017-08-13T03:13:56.970Z,100940.44
2017-08-13T03:16:24.220Z,100940.07
2017-08-13T03:18:51.879Z,100941.41
2017-08-13T03:21:19.120Z,100945.41
2017-08-13T03:23:46.365Z,100937.48
2017-08-13T03:26:13.744Z,100937.03
2017-08-13T03:28:41.207Z,100930.78
2017-08-13T03:31:08.656Z,100933.45
2017-08-13T03:33:36.429Z,100922.79
2017-08-13T03:36:04.077Z,100931.69
2017-08-13T03:38:31.253Z,100939.23
2017-08-13T03:40:58.431Z,100944.16
2017-08-13T03:43:25.951Z,100949.92
2017-08-13T03:45:53.121Z,100955.27
2017-08-13T03:48:20.541Z,100957.94
2017-08-13T03:50:48.009Z,100960.61
2017-08-13T03:53:15.191Z,100953.05
2017-08-13T03:55:42.668Z,100964.66
2017-08-13T03:58:10.071Z,100962.00
2017-08-13T04:00:37.255Z,100955.74
2017-08-13T04:03:04.993Z,100956.66
2017-08-13T04:05:32.637Z,100963.81
2017-08-13T04:08:00.215Z,100962.96
2017-08-13T04:10:27.877Z,100966.91
2017-08-13T04:12:55.437Z,100974.06
2017-08-13T04:15:22.627Z,100978.50
2017-08-13T04:17:50.035Z,100972.73
2017-08-13T04:20:17.745Z,100984.75
2017-08-13T04:22:44.958Z,100984.34
2017-08-13T04:25:12.409Z,100993.67
2017-08-13T04:27:39.869Z,100995.91
2017-08-13T04:30:07.036Z,100985.23
2017-08-13T04:32:34.209Z,100987.91
2017-08-13T04:35:01.629Z,100989.23
2017-08-13T04:37:29.087Z,100991.45
2017-08-13T04:39:56.550Z,100992.36
2017-08-13T04:42:23.994Z,100994.66
2017-08-13T04:44:51.645Z,100996.37
2017-08-13T04:47:18.835Z,100998.12
2017-08-13T04:49:46.058Z,100992.36
2017-08-13T04:52:13.648Z,100992.84
2017-08-13T04:54:40.843Z,101001.76
2017-08-13T04:57:08.435Z,101009.70
2017-08-13T04:59:35.882Z,101010.61
2017-08-13T05:02:03.053Z,101005.27
2017-08-13T05:04:30.696Z,101004.38
2017-08-13T05:06:57.865Z,101015.48
2017-08-13T05:09:25.297Z,101013.72
2017-08-13T05:11:52.773Z,101026.17
2017-08-13T05:14:19.945Z,101028.41
2017-08-13T05:16:47.326Z,101029.30
2017-08-13T05:19:14.629Z,101030.66
2017-08-13T05:21:42.080Z,101029.75
2017-08-13T05:24:09.536Z,101033.33
2017-08-13T05:26:37.196Z,101031.56
2017-08-13T05:29:04.514Z,101035.52
2017-08-13T05:31:32.031Z,101038.24
2017-08-13T05:33:59.368Z,101037.81
2017-08-13T05:36:26.889Z,101047.59
2017-08-13T05:38:54.279Z,101042.67
2017-08-13T05:41:21.467Z,101040.00
2017-08-13T05:43:49.204Z,101044.01
2017-08-13T05:46:16.373Z,101044.06
2017-08-13T05:48:43.805Z,101043.16
2017-08-13T05:51:11.260Z,101053.36
2017-08-13T05:53:39.031Z,101056.51
2017-08-13T05:56:06.216Z,101061.84
2017-08-13T05:58:33.724Z,101075.20
2017-08-13T06:01:01.087Z,101069.44
2017-08-13T06:03:28.544Z,101074.30
2017-08-13T06:05:56.128Z,101077.02
2017-08-13T06:08:23.311Z,101075.25
2017-08-13T06:10:50.609Z,101081.45
2017-08-13T06:13:18.131Z,101081.45
2017-08-13T06:15:45.310Z,101083.70
2017-08-13T06:18:12.742Z,101088.05
2017-08-13T06:20:40.310Z,101086.48
2017-08-13T06:23:07.497Z,101087.13
2017-08-13T06:25:34.736Z,101093.06
2017-08-13T06:28:02.510Z,101089.22
2017-08-13T06:30:30.154Z,101096.30
2017-08-13T06:32:57.732Z,101096.70
2017-08-13T06:35:24.923Z,101087.13
2017-08-13T06:37:52.111Z,101092.17
2017-08-13T06:40:19.351Z,101090.46
2017-08-13T06:42:46.535Z,101097.16
2017-08-13T06:45:13.719Z,101101.65
2017-08-13T06:47:40.916Z,101105.70
2017-08-13T06:50:08.388Z,101115.48
2017-08-13T06:52:35.576Z,101115.97
2017-08-13T06:55:02.745Z,101121.25
2017-08-13T06:57:30.173Z,101124.35
2017-08-13T06:59:57.361Z,101123.85
2017-08-13T07:02:24.959Z,101127.80
2017-08-13T07:04:52.212Z,101129.14
2017-08-13T07:07:19.668Z,101134.91
2017-08-13T07:09:47.012Z,101134.98
2017-08-13T07:12:14.593Z,101135.52
2017-08-13T07:14:41.765Z,101138.61
2017-08-13T07:17:09.506Z,101138.13
2017-08-13T07:19:36.687Z,101144.81
2017-08-13T07:22:04.110Z,101145.64
2017-08-13T07:24:31.570Z,101144.33
2017-08-13T07:26:59.086Z,101140.80
2017-08-13T07:29:26.270Z,101138.19
2017-08-13T07:31:53.696Z,101143.53
2017-08-13T07:34:20.893Z,101150.69
2017-08-13T07:36:48.076Z,101155.12
2017-08-13T07:39:15.599Z,101156.83
2017-08-13T07:41:42.916Z,101154.59
2017-08-13T07:44:10.409Z,101158.16
2017-08-13T07:46:37.751Z,101161.27
2017-08-13T07:49:04.929Z,101158.16
2017-08-13T07:51:32.436Z,101163.02
2017-08-13T07:53:59.830Z,101168.80
2017-08-13T07:56:27.005Z,101168.37
2017-08-13T07:58:54.177Z,101167.94
2017-08-13T08:01:21.683Z,101163.02
2017-08-13T08:03:48.866Z,101167.45
2017-08-13T08:06:16.181Z,101167.45
2017-08-13T08:08:43.711Z,101171.92
2017-08-13T08:11:11.097Z,101164.36
2017-08-13T08:13:38.274Z,101174.61
2017-08-13T08:16:05.814Z,101172.80
2017-08-13T08:18:33.161Z,101178.12
2017-08-13T08:21:00.626Z,101173.20
2017-08-13T08:23:27.811Z,101177.22
2017-08-13T08:25:54.981Z,101181.17
2017-08-13T08:28:22.377Z,101182.55
2017-08-13T08:30:49.559Z,101185.17
2017-08-13T08:33:16.729Z,101187.84
2017-08-13T08:35:44.205Z,101186.94
2017-08-13T08:38:11.377Z,101193.19
2017-08-13T08:40:38.549Z,101192.76
2017-08-13T08:43:05.733Z,101195.17
2017-08-13T08:45:33.039Z,101192.68
2017-08-13T08:48:00.213Z,101191.03
2017-08-13T08:50:27.404Z,101201.95
2017-08-13T08:52:54.593Z,101200.13
2017-08-13T08:55:21.951Z,101200.48
2017-08-13T08:57:49.142Z,101198.41
2017-08-13T09:00:16.560Z,101204.49
2017-08-13T09:02:44.073Z,101203.51
2017-08-13T09:05:11.256Z,101208.92
2017-08-13T09:07:38.626Z,101203.40
2017-08-13T09:10:05.798Z,101201.56
2017-08-13T09:12:33.229Z,101203.34
2017-08-13T09:15:00.684Z,101209.11
2017-08-13T09:17:27.868Z,101204.93
2017-08-13T09:19:55.050Z,101209.13
2017-08-13T09:22:22.515Z,101207.00
2017-08-13T09:24:49.901Z,101204.83
2017-08-13T09:27:17.361Z,101202.20
2017-08-13T09:29:44.533Z,101205.81
2017-08-13T09:32:11.722Z,101206.29
2017-08-13T09:34:38.893Z,101212.54
2017-08-13T09:37:06.079Z,101216.59
2017-08-13T09:39:33.287Z,101224.19
2017-08-13T09:42:00.471Z,101222.87
2017-08-13T09:44:27.640Z,101224.26
2017-08-13T09:46:54.870Z,101225.11
2017-08-13T09:49:22.060Z,101225.22
2017-08-13T09:51:49.577Z,101224.76
2017-08-13T09:54:16.934Z,101223.42
2017-08-13T09:56:44.106Z,101218.55
2017-08-13T09:59:11.282Z,101218.08
2017-08-13T10:01:39.000Z,101214.53
2017-08-13T10:04:06.452Z,101220.33
2017-08-13T10:06:33.833Z,101216.75
2017-08-13T10:09:01.015Z,101218.13
2017-08-13T10:11:28.199Z,101215.41
2017-08-13T10:13:55.378Z,101215.03
2017-08-13T10:16:22.812Z,101222.62
2017-08-13T10:18:50.272Z,101218.56
2017-08-13T10:21:17.474Z,101219.05
2017-08-13T10:23:44.672Z,101217.22
2017-08-13T10:26:11.846Z,101214.13
2017-08-13T10:28:39.040Z,101219.05
2017-08-13T10:31:06.336Z,101214.18
2017-08-13T10:33:33.851Z,101216.84
2017-08-13T10:36:01.038Z,101219.52
2017-08-13T10:38:28.212Z,101216.00
2017-08-13T10:40:55.550Z,101218.69
2017-08-13T10:43:22.758Z,101227.96
2017-08-13T10:45:50.148Z,101227.55
2017-08-13T10:48:17.336Z,101226.63
2017-08-13T10:50:44.824Z,101228.46
2017-08-13T10:53:11.993Z,101228.88
2017-08-13T10:55:39.175Z,101225.72
2017-08-13T10:58:06.578Z,101219.95
2017-08-13T11:00:33.758Z,101219.52
2017-08-13T11:03:00.924Z,101208.41
2017-08-13T11:05:28.179Z,101211.98
2017-08-13T11:07:55.363Z,101208.48
2017-08-13T11:10:22.641Z,101217.33
2017-08-13T11:12:49.816Z,101224.88
2017-08-13T11:15:17.004Z,101222.21
2017-08-13T11:17:44.543Z,101220.45
2017-08-13T11:20:11.732Z,101220.45
2017-08-13T11:22:38.916Z,101226.27
2017-08-13T11:25:06.092Z,101228.52
2017-08-13T11:27:33.539Z,101228.09
2017-08-13T11:30:01.183Z,101225.41
2017-08-13T11:32:28.376Z,101224.98
2017-08-13T11:34:55.608Z,101227.18
2017-08-13T11:37:23.377Z,101225.84
2017-08-13T11:39:50.871Z,101225.41
2017-08-13T11:42:18.471Z,101230.35
2017-08-13T11:44:45.641Z,101229.00
2017-08-13T11:47:12.896Z,101234.84
2017-08-13T11:49:40.351Z,101230.35
2017-08-13T11:52:07.564Z,101233.02
2017-08-13T11:54:35.273Z,101237.03
2017-08-13T11:57:03.035Z,101235.25
2017-08-13T11:59:30.489Z,101232.14
2017-08-13T12:01:57.660Z,101233.02
2017-08-13T12:04:25.411Z,101229.55
2017-08-13T12:06:52.599Z,101227.67
2017-08-13T12:09:19.770Z,101227.73
2017-08-13T12:11:47.472Z,101229.06
2017-08-13T12:14:14.974Z,101232.52
2017-08-13T12:16:42.375Z,101233.18
2017-08-13T12:19:09.549Z,101235.05
2017-08-13T12:21:36.718Z,101233.45
2017-08-13T12:24:03.885Z,101232.91
2017-08-13T12:26:31.075Z,101228.61
2017-08-13T12:28:58.507Z,101232.85
2017-08-13T12:31:25.999Z,101229.59
2017-08-13T12:33:53.352Z,101236.03
2017-08-13T12:36:20.536Z,101235.30
2017-08-13T12:38:47.705Z,101236.70
2017-08-13T12:41:15.107Z,101231.84
2017-08-13T12:43:42.295Z,101229.67
2017-08-13T12:46:09.461Z,101230.58
2017-08-13T12:48:37.049Z,101234.16
2017-08-13T12:51:04.539Z,101235.06
2017-08-13T12:53:31.708Z,101230.16
2017-08-13T12:55:59.124Z,101229.35
2017-08-13T12:58:26.389Z,101228.46
2017-08-13T13:00:53.561Z,101238.23
2017-08-13T13:03:20.744Z,101233.37
2017-08-13T13:05:48.146Z,101231.61
2017-08-13T13:08:15.711Z,101230.70
2017-08-13T13:10:43.254Z,101233.86
2017-08-13T13:13:10.832Z,101235.62
2017-08-13T13:15:38.283Z,101232.89
2017-08-13T13:18:05.737Z,101227.13
2017-08-13T13:20:33.252Z,101235.14
2017-08-13T13:23:00.421Z,101230.28
2017-08-13T13:25:27.602Z,101229.42
2017-08-13T13:27:54.952Z,101234.34
2017-08-13T13:30:22.140Z,101231.66
2017-08-13T13:32:49.562Z,101235.25
2017-08-13T13:35:16.751Z,101230.33
2017-08-13T13:37:44.188Z,101233.00
2017-08-13T13:40:11.361Z,101232.57
2017-08-13T13:42:38.957Z,101237.44
2017-08-13T13:45:06.233Z,101237.48
2017-08-13T13:47:33.415Z,101239.25
2017-08-13T13:50:00.912Z,101239.70
2017-08-13T13:52:28.085Z,101234.36
2017-08-13T13:54:55.497Z,101242.37
2017-08-13T13:57:22.681Z,101240.17
2017-08-13T13:59:50.367Z,101237.94
2017-08-13T14:02:17.554Z,101241.03
2017-08-13T14:04:45.282Z,101249.50
2017-08-13T14:07:12.537Z,101241.94
2017-08-13T14:09:39.705Z,101243.33
2017-08-13T14:12:06.888Z,101243.28
2017-08-13T14:14:34.056Z,101236.66
2017-08-13T14:17:01.647Z,101236.22
2017-08-13T14:19:28.832Z,101237.08
2017-08-13T14:21:56.342Z,101242.84
2017-08-13T14:24:23.513Z,101241.56
2017-08-13T14:26:51.127Z,101232.22
2017-08-13T14:29:19.065Z,101243.75
2017-08-13T14:31:46.233Z,101244.19
2017-08-13T14:34:13.416Z,101235.80
2017-08-13T14:36:40.605Z,101245.09
2017-08-13T14:39:07.988Z,101241.56
2017-08-13T14:41:35.295Z,101245.57
2017-08-13T14:44:03.060Z,101246.00
2017-08-13T14:46:30.824Z,101247.34
2017-08-13T14:48:57.997Z,101252.67
2017-08-13T14:51:25.604Z,101250.48
2017-08-13T14:53:52.788Z,101251.82
2017-08-13T14:56:19.972Z,101251.82
2017-08-13T14:58:47.492Z,101254.06
2017-08-13T15:01:15.050Z,101256.25
2017-08-13T15:03:42.239Z,101258.92
2017-08-13T15:06:09.409Z,101256.73
2017-08-13T15:08:36.705Z,101258.98
2017-08-13T15:11:03.894Z,101253.16
2017-08-13T15:13:31.065Z,101250.50
2017-08-13T15:15:58.580Z,101253.59
2017-08-13T15:18:25.909Z,101256.61
2017-08-13T15:20:53.440Z,101255.60
2017-08-13T15:23:20.632Z,101251.04
2017-08-13T15:25:47.817Z,101254.06
2017-08-13T15:28:15.141Z,101258.13
2017-08-13T15:30:42.794Z,101252.73
2017-08-13T15:33:09.979Z,101256.69
2017-08-13T15:35:37.224Z,101257.58
2017-08-13T15:38:04.652Z,101260.19
2017-08-13T15:40:31.825Z,101256.19
2017-08-13T15:42:59.036Z,101255.28
2017-08-13T15:45:26.408Z,101253.56
2017-08-13T15:47:53.745Z,101254.06
2017-08-13T15:50:21.024Z,101267.85
2017-08-13T15:52:48.470Z,101266.56
2017-08-13T15:55:15.787Z,101261.28
2017-08-13T15:57:42.953Z,101270.58
2017-08-13T16:00:10.324Z,101271.96
2017-08-13T16:02:37.497Z,101271.08
2017-08-13T16:05:04.665Z,101271.80
2017-08-13T16:07:32.050Z,101277.48
2017-08-13T16:09:59.218Z,101276.02
2017-08-13T16:12:26.595Z,101280.71
2017-08-13T16:14:53.780Z,101276.51
2017-08-13T16:17:21.205Z,101281.75
2017-08-13T16:19:48.393Z,101284.11
2017-08-13T16:22:15.809Z,101275.37
2017-08-13T16:24:42.996Z,101278.94
2017-08-13T16:27:10.340Z,101281.64
2017-08-13T16:29:37.632Z,101276.34
2017-08-13T16:32:04.801Z,101274.58
2017-08-13T16:34:32.191Z,101278.64
2017-08-13T16:36:59.738Z,101286.67
2017-08-13T16:39:26.910Z,101282.30
2017-08-13T16:41:56.751Z,101284.34
2017-08-13T16:44:24.540Z,101286.11
2017-08-13T16:46:52.208Z,101287.39
2017-08-13T16:49:20.002Z,101285.68
2017-08-13T16:51:47.182Z,101287.14
2017-08-13T16:54:14.354Z,101285.02
2017-08-13T16:56:41.828Z,101289.05
2017-08-13T16:59:09.015Z,101283.80
2017-08-13T17:01:36.200Z,101284.66
2017-08-13T17:04:03.581Z,101286.05
2017-08-13T17:06:31.073Z,101294.06
2017-08-13T17:08:58.278Z,101290.08
2017-08-13T17:11:25.569Z,101288.73
2017-08-13T17:13:53.662Z,101288.31
2017-08-13T17:16:21.099Z,101289.64
2017-08-13T17:18:48.261Z,101286.12
2017-08-13T17:21:15.779Z,101291.47
2017-08-13T17:23:42.958Z,101284.36
2017-08-13T17:26:10.147Z,101293.28
2017-08-13T17:28:37.957Z,101298.19
2017-08-13T17:31:05.131Z,101295.52
2017-08-13T17:33:32.323Z,101297.34
2017-08-13T17:35:59.586Z,101299.13
2017-08-13T17:38:26.769Z,101295.09
2017-08-13T17:40:54.137Z,101296.88
2017-08-13T17:43:21.593Z,101299.13
2017-08-13T17:45:49.231Z,101296.00
2017-08-13T17:48:16.723Z,101300.01
2017-08-13T17:50:44.278Z,101298.19
2017-08-13T17:53:11.728Z,101304.44
2017-08-13T17:55:39.494Z,101306.69
2017-08-13T17:58:07.054Z,101307.11
2017-08-13T18:00:36.001Z,101306.20
2017-08-13T18:03:05.791Z,101313.31
2017-08-13T18:05:36.335Z,101315.55
2017-08-13T18:08:06.437Z,101306.69
2017-08-13T18:10:37.456Z,101311.56
2017-08-13T18:13:07.354Z,101314.70
2017-08-13T18:15:36.896Z,101312.91
2017-08-13T18:34:09.358Z,101332.94
2017-08-13T18:36:36.815Z,101337.41
2017-08-13T18:39:04.577Z,101332.94
2017-08-13T18:41:31.759Z,101335.61
2017-08-13T18:43:58.941Z,101341.84
2017-08-13T18:46:26.333Z,101335.16
2017-08-13T18:48:54.100Z,101337.85
2017-08-13T18:51:21.760Z,101332.94
2017-08-13T18:53:49.178Z,101339.19
2017-08-13T18:56:16.996Z,101344.53
2017-08-13T18:58:44.236Z,101346.30
2017-08-13T19:01:11.979Z,101342.28
2017-08-13T19:03:39.568Z,101345.44
2017-08-13T19:06:07.528Z,101352.11
2017-08-13T19:08:35.480Z,101356.55
2017-08-13T19:11:03.116Z,101358.31
2017-08-13T19:13:30.715Z,101358.77
2017-08-13T19:15:58.164Z,101360.55
2017-08-13T19:18:25.550Z,101364.98
2017-08-13T19:20:52.879Z,101368.14
2017-08-13T19:23:20.559Z,101371.29
2017-08-13T19:25:47.838Z,101369.91
2017-08-13T19:28:15.447Z,101369.47
2017-08-13T19:30:42.718Z,101366.38
2017-08-13T19:33:09.898Z,101367.11
2017-08-13T19:35:38.178Z,101370.86
2017-08-13T19:38:06.930Z,101367.97
2017-08-13T19:40:34.373Z,101370.80
2017-08-13T19:43:01.859Z,101370.94
2017-08-13T19:45:29.306Z,101370.39
2017-08-13T19:47:57.239Z,101375.50
2017-08-13T19:50:24.515Z,101380.77
2017-08-13T19:52:52.074Z,101380.53
2017-08-13T19:55:19.596Z,101380.23
2017-08-13T19:57:46.960Z,101391.45
2017-08-13T20:00:16.874Z,101387.45
2017-08-13T20:02:46.810Z,101386.17
2017-08-13T20:05:17.575Z,101391.08
2017-08-13T20:30:20.570Z,101407.23
2017-08-13T20:32:47.828Z,101409.42
2017-08-13T20:35:15.928Z,101407.23
2017-08-13T20:37:43.381Z,101405.89
2017-08-13T20:40:10.956Z,101409.91
2017-08-13T20:42:38.286Z,101409.91
2017-08-13T20:45:05.840Z,101413.48
2017-08-13T20:47:33.205Z,101410.38
2017-08-13T20:50:01.900Z,101413.48
2017-08-13T20:52:29.665Z,101410.81
2017-08-13T20:54:57.121Z,101410.38
2017-08-13T20:57:24.880Z,101413.95
2017-08-13T20:59:52.269Z,101416.58
2017-08-13T21:02:19.892Z,101416.58
2017-08-13T21:04:47.230Z,101414.77
2017-08-13T21:07:14.428Z,101416.16
2017-08-13T21:09:42.478Z,101421.49
2017-08-13T21:12:10.059Z,101413.07
2017-08-13T21:14:39.110Z,101412.69
2017-08-13T21:17:08.339Z,101414.94
2017-08-13T21:19:35.680Z,101416.70
2017-08-13T21:22:03.329Z,101414.03
2017-08-13T21:24:30.602Z,101412.69
2017-08-13T21:26:58.289Z,101420.66
2017-08-13T21:29:26.664Z,101410.88
2017-08-13T21:31:54.248Z,101412.69
2017-08-13T21:34:21.869Z,101408.26
2017-08-13T21:36:49.311Z,101415.41
2017-08-13T21:39:16.497Z,101410.50
2017-08-13T21:41:44.031Z,101414.94
2017-08-13T21:44:11.288Z,101416.70
2017-08-13T21:46:38.780Z,101417.17
2017-08-13T21:49:06.301Z,101418.52
2017-08-13T21:51:33.862Z,101418.89
2017-08-13T21:54:01.336Z,101422.04
2017-08-13T21:56:28.848Z,101415.36
2017-08-13T21:58:56.592Z,101420.75
2017-08-13T22:01:24.061Z,101422.52
2017-08-13T22:03:51.775Z,101423.86
2017-08-13T22:06:19.220Z,101424.71
2017-08-13T22:08:47.066Z,101425.67
2017-08-13T22:11:14.581Z,101422.09
2017-08-13T22:13:42.201Z,101425.19
2017-08-13T22:16:11.299Z,101431.39
2017-08-13T22:18:38.866Z,101428.29
2017-08-13T22:21:06.486Z,101425.62
2017-08-13T22:23:33.867Z,101428.77
2017-08-13T22:26:01.329Z,101433.20
2017-08-13T22:28:28.980Z,101429.67
2017-08-13T22:30:56.168Z,101427.02
2017-08-13T22:33:23.341Z,101424.35
2017-08-13T22:35:50.549Z,101418.58
2017-08-13T22:38:17.995Z,101422.16
2017-08-13T22:40:45.168Z,101422.16
2017-08-13T22:43:12.917Z,101415.05
2017-08-13T22:45:40.112Z,101411.95
2017-08-13T22:48:07.317Z,101426.59
2017-08-13T22:50:34.914Z,101423.06
2017-08-13T22:53:02.107Z,101423.97
2017-08-13T22:55:30.075Z,101424.40
2017-08-13T22:57:57.539Z,101419.92
2017-08-13T23:00:24.722Z,101422.21
2017-08-13T23:02:51.946Z,101420.39
2017-08-13T23:05:19.145Z,101418.62
2017-08-13T23:07:46.553Z,101423.75
2017-08-13T23:10:13.735Z,101418.53
2017-08-13T23:12:41.172Z,101416.47
2017-08-13T23:15:08.628Z,101419.14
2017-08-13T23:17:36.089Z,101419.16
2017-08-13T23:20:03.651Z,101416.24
2017-08-13T23:22:31.118Z,101421.03
2017-08-13T23:24:58.456Z,101413.67
2017-08-13T23:27:25.976Z,101419.13
2017-08-13T23:29:53.179Z,101413.84
2017-08-13T23:32:20.522Z,101412.58
2017-08-13T23:34:47.689Z,101411.72
2017-08-13T23:37:15.128Z,101411.73
2017-08-13T23:39:42.574Z,101409.97
2017-08-13T23:42:09.767Z,101411.30
2017-08-13T23:44:36.933Z,101411.73
2017-08-13T23:47:04.470Z,101413.12
2017-08-13T23:49:31.987Z,101412.21
2017-08-13T23:51:59.176Z,101410.02
2017-08-13T23:54:26.412Z,101407.35
2017-08-13T23:56:53.966Z,101407.78
2017-08-13T23:59:21.508Z,101405.70
